Terminal Aerodrome Forecast
Issued by NWS

Home | Current Version | Previous Version | Text Only | Print | Product List | Glossary On
Versions: 1 2 3 4 5 6 7 8 9 10 11 12 13 14 15 16
000
FTUS41 KPBZ 261125
TAFAGC
TAF
KAGC 261125Z 2612/2712 17006KT P6SM OVC100
     FM261400 16005KT P6SM VCSH BKN060
     FM261600 21007KT P6SM VCTS BKN050CB
     FM262100 22005KT P6SM BKN080=

USA.gov is the U.S. government's official web portal to all federal, state and local government web resources and services.